Time;durP1;ratioP1;P1;durP2;ratioP2;P2;SDS_P1;SDS_P2;PMS_P1;PMS_P2;Temp;Humidity;BMP_temperature;BMP_pressure;BME280_temperature;BME280_humidity;BME280_pressure;Samples;Min_cycle;Max_cycle;Signal;HPM_P1;HPM_P2
2023/10/18 00:01:27;;;;;;;41.00;19.10;;;4.50;99.90;;;;;;2603055;54;20026;31
2023/10/18 00:04:03;;;;;;;42.50;19.70;;;4.50;99.90;;;;;;2603748;54;20042;31
2023/10/18 00:06:41;;;;;;;35.45;18.35;;;4.40;99.90;;;;;;2603342;54;20027;31
2023/10/18 00:12:07;;;;;;;36.35;18.15;;;4.40;99.90;;;;;;2603324;54;20033;31
2023/10/18 00:14:43;;;;;;;34.40;18.07;;;4.30;99.90;;;;;;2603487;54;20026;31
2023/10/18 00:17:20;;;;;;;33.53;16.55;;;4.30;99.90;;;;;;2603257;54;20056;31
2023/10/18 00:19:55;;;;;;;34.33;17.07;;;4.30;99.90;;;;;;2603271;54;20042;31
2023/10/18 00:22:33;;;;;;;36.47;18.33;;;4.20;99.90;;;;;;2603520;54;20356;31
2023/10/18 00:25:11;;;;;;;33.20;16.08;;;4.20;99.90;;;;;;2621532;46;20848;31
2023/10/18 00:27:48;;;;;;;28.13;15.82;;;4.10;99.90;;;;;;2603186;54;20037;31
2023/10/18 00:30:23;;;;;;;28.15;15.30;;;4.10;99.90;;;;;;2603152;54;20030;31
2023/10/18 00:33:01;;;;;;;31.65;15.38;;;4.00;99.90;;;;;;2603154;54;20030;31
2023/10/18 00:35:36;;;;;;;28.63;13.77;;;4.00;99.90;;;;;;2603330;54;20899;31
2023/10/18 00:38:18;;;;;;;26.50;15.43;;;4.00;99.90;;;;;;2603186;54;20026;31
2023/10/18 00:40:56;;;;;;;29.90;14.43;;;4.00;99.90;;;;;;2603566;54;20364;31
2023/10/18 00:43:33;;;;;;;28.23;14.55;;;3.90;99.90;;;;;;2621792;46;20084;31
2023/10/18 00:46:11;;;;;;;33.38;14.20;;;3.90;99.90;;;;;;2621772;46;20038;31
2023/10/18 00:48:47;;;;;;;28.58;15.40;;;3.90;99.90;;;;;;2603267;54;20089;31
2023/10/18 00:51:24;;;;;;;25.38;14.32;;;3.90;99.90;;;;;;2602751;54;20114;31
2023/10/18 00:54:14;;;;;;;34.00;16.47;;;3.90;99.90;;;;;;2603255;54;20109;31
2023/10/18 00:56:51;;;;;;;31.52;14.30;;;3.80;99.90;;;;;;2603200;54;20070;31
2023/10/18 00:59:29;;;;;;;27.58;14.73;;;3.80;99.90;;;;;;2603131;54;20802;31
2023/10/18 01:02:11;;;;;;;25.55;13.65;;;3.80;99.90;;;;;;2603229;54;20049;31
2023/10/18 01:04:52;;;;;;;26.70;12.80;;;3.80;99.90;;;;;;2602994;54;20927;31
2023/10/18 01:07:27;;;;;;;31.98;15.10;;;3.80;99.90;;;;;;2603286;54;20030;31
2023/10/18 01:10:12;;;;;;;24.50;13.02;;;3.80;99.90;;;;;;2603345;54;20853;31
2023/10/18 01:12:52;;;;;;;28.75;14.05;;;3.80;99.90;;;;;;2603335;54;20033;31
2023/10/18 01:15:31;;;;;;;27.35;14.40;;;3.70;99.90;;;;;;2603160;54;20782;31
2023/10/18 01:18:06;;;;;;;20.75;11.40;;;3.70;99.90;;;;;;2603285;54;20064;31
2023/10/18 01:20:45;;;;;;;24.65;13.07;;;3.70;99.90;;;;;;2603173;54;20038;31
2023/10/18 01:23:24;;;;;;;24.60;12.50;;;3.60;99.90;;;;;;2603087;54;20033;31
2023/10/18 01:26:08;;;;;;;29.58;13.23;;;3.60;99.90;;;;;;2602398;54;20811;31
2023/10/18 01:28:46;;;;;;;24.85;13.45;;;3.60;99.90;;;;;;2602359;54;22484;31
2023/10/18 01:31:24;;;;;;;31.00;13.98;;;3.60;99.90;;;;;;2611639;46;20022;31
2023/10/18 01:34:10;;;;;;;24.00;12.80;;;3.50;99.90;;;;;;2602437;54;20310;31
2023/10/18 01:36:48;;;;;;;24.20;13.93;;;3.50;99.90;;;;;;2621475;46;20034;31
2023/10/18 01:39:29;;;;;;;24.63;13.77;;;3.50;99.90;;;;;;2603156;54;20914;31
2023/10/18 01:44:45;;;;;;;22.03;12.50;;;3.30;99.90;;;;;;2603069;54;20088;31
2023/10/18 01:47:21;;;;;;;20.57;12.00;;;3.30;99.90;;;;;;2603292;54;21074;31
2023/10/18 01:49:58;;;;;;;20.80;12.38;;;3.30;99.90;;;;;;2603216;54;20053;31
2023/10/18 01:52:37;;;;;;;23.10;11.85;;;3.20;99.90;;;;;;2602927;54;20893;31
2023/10/18 01:55:14;;;;;;;24.90;12.60;;;3.20;99.90;;;;;;2605986;47;20862;31
2023/10/18 01:57:51;;;;;;;22.50;11.15;;;3.20;99.90;;;;;;2602983;54;20101;31
2023/10/18 02:03:06;;;;;;;24.10;12.98;;;3.20;99.90;;;;;;2603741;54;20026;31
2023/10/18 02:05:43;;;;;;;24.00;11.55;;;3.20;99.90;;;;;;2604052;54;20878;31
2023/10/18 02:08:20;;;;;;;19.98;11.23;;;3.20;99.90;;;;;;2603716;54;20042;31
2023/10/18 02:10:56;;;;;;;24.92;11.75;;;3.20;99.90;;;;;;2622241;46;20026;31
2023/10/18 02:13:32;;;;;;;22.20;11.65;;;3.10;99.90;;;;;;2603845;54;20189;31
2023/10/18 02:16:15;;;;;;;21.55;11.93;;;3.10;99.90;;;;;;2603760;54;20094;31
2023/10/18 02:18:56;;;;;;;27.40;13.57;;;3.10;99.90;;;;;;2603835;54;20046;31
2023/10/18 02:21:34;;;;;;;24.10;12.52;;;3.10;99.90;;;;;;2603554;54;20116;31
2023/10/18 02:24:13;;;;;;;25.00;12.27;;;3.10;99.90;;;;;;2603761;54;20027;31
2023/10/18 02:26:56;;;;;;;19.70;12.65;;;3.00;99.90;;;;;;2621802;46;22465;31
2023/10/18 02:29:34;;;;;;;23.33;12.35;;;3.00;99.90;;;;;;2603813;54;20027;31
2023/10/18 02:32:21;;;;;;;23.88;13.75;;;3.00;99.90;;;;;;2622473;46;20844;31
2023/10/18 02:35:04;;;;;;;25.00;13.40;;;3.00;99.90;;;;;;2603737;54;20859;31
2023/10/18 02:37:43;;;;;;;30.55;14.73;;;2.90;99.90;;;;;;2603689;54;20093;31
2023/10/18 02:40:29;;;;;;;28.08;14.00;;;2.80;99.90;;;;;;2622221;46;20022;31
2023/10/18 02:43:08;;;;;;;32.35;14.55;;;2.80;99.90;;;;;;2603534;54;20884;31
2023/10/18 02:45:51;;;;;;;29.13;12.70;;;2.70;99.90;;;;;;2603647;54;20833;31
2023/10/18 02:48:28;;;;;;;24.02;12.88;;;2.80;99.90;;;;;;2603799;54;20113;31
2023/10/18 02:51:11;;;;;;;25.23;13.07;;;2.70;99.90;;;;;;2603042;54;20821;31
2023/10/18 02:53:49;;;;;;;29.40;12.77;;;2.70;99.90;;;;;;2603632;54;20938;31
2023/10/18 02:56:27;;;;;;;28.80;13.27;;;2.70;99.90;;;;;;2603786;54;20850;31
2023/10/18 02:59:10;;;;;;;29.23;13.50;;;2.60;99.90;;;;;;2602895;54;20953;31
2023/10/18 03:01:48;;;;;;;25.23;12.38;;;2.60;99.90;;;;;;2608928;46;20929;31
2023/10/18 03:04:28;;;;;;;22.17;11.35;;;2.60;99.90;;;;;;2603680;54;20038;31
2023/10/18 03:07:13;;;;;;;26.60;13.10;;;2.60;99.90;;;;;;2622381;46;20899;31
2023/10/18 03:09:49;;;;;;;22.20;13.38;;;2.60;99.90;;;;;;2603544;54;20031;31
2023/10/18 03:12:28;;;;;;;28.05;13.75;;;2.50;99.90;;;;;;2603278;54;20941;31
2023/10/18 03:15:08;;;;;;;23.90;11.90;;;2.60;99.90;;;;;;2603547;54;20837;31
2023/10/18 03:17:44;;;;;;;25.90;12.23;;;2.60;99.90;;;;;;2603704;54;20033;31
2023/10/18 03:20:26;;;;;;;25.95;13.15;;;2.60;99.90;;;;;;2603751;54;20042;31
2023/10/18 03:23:07;;;;;;;28.35;13.55;;;2.60;99.90;;;;;;2603639;54;20037;31
2023/10/18 03:25:45;;;;;;;45.55;15.75;;;2.60;99.90;;;;;;2603767;54;20034;31
2023/10/18 03:28:23;;;;;;;37.70;17.60;;;2.60;99.90;;;;;;2622321;46;20062;31
2023/10/18 03:31:20;;;;;;;36.25;16.65;;;2.60;99.90;;;;;;2603514;54;25115;31
2023/10/18 03:33:55;;;;;;;38.95;17.60;;;2.70;99.90;;;;;;2603515;54;20027;31
2023/10/18 03:36:35;;;;;;;30.10;15.95;;;2.60;99.90;;;;;;2602862;54;20149;31
2023/10/18 03:39:15;;;;;;;;;;;2.70;99.90;;;;;;2602789;54;20026;31
2023/10/18 03:41:58;;;;;;;33.08;16.08;;;2.70;99.90;;;;;;2602872;54;20001;31
2023/10/18 03:44:46;;;;;;;41.60;17.55;;;2.70;99.90;;;;;;2603488;54;20812;31
2023/10/18 03:47:24;;;;;;;31.85;14.85;;;2.60;99.90;;;;;;2603371;54;20033;31
2023/10/18 03:50:02;;;;;;;37.20;15.40;;;2.60;99.90;;;;;;2603640;54;20893;31
2023/10/18 03:52:39;;;;;;;31.20;14.93;;;2.60;99.90;;;;;;2603604;54;20113;31
2023/10/18 03:55:17;;;;;;;39.63;16.83;;;2.50;99.90;;;;;;2603480;54;20909;31
2023/10/18 03:57:58;;;;;;;37.67;16.33;;;2.50;99.90;;;;;;2603600;54;20023;31
2023/10/18 04:00:46;;;;;;;46.20;17.10;;;2.50;99.90;;;;;;2603296;54;19934;31
2023/10/18 04:03:30;;;;;;;38.00;16.85;;;2.50;99.90;;;;;;2603613;54;20034;31
2023/10/18 04:06:08;;;;;;;36.85;16.95;;;2.50;99.90;;;;;;2603496;54;20072;31
2023/10/18 04:08:42;;;;;;;39.55;17.80;;;2.40;99.90;;;;;;2603295;54;20910;31
2023/10/18 04:11:26;;;;;;;48.53;18.15;;;2.40;99.90;;;;;;2603534;54;20077;31
2023/10/18 04:14:06;;;;;;;33.40;16.90;;;2.40;99.90;;;;;;2621489;46;20032;31
2023/10/18 04:16:42;;;;;;;37.33;18.13;;;2.40;99.90;;;;;;2621441;46;20056;31
2023/10/18 04:19:19;;;;;;;34.42;17.08;;;2.30;99.90;;;;;;2602867;54;20030;31
2023/10/18 04:21:55;;;;;;;36.00;18.70;;;2.30;99.90;;;;;;2603372;54;20030;31
2023/10/18 04:24:29;;;;;;;;;;;2.30;99.90;;;;;;2621715;46;21153;31
2023/10/18 04:27:05;;;;;;;33.53;15.32;;;2.30;99.90;;;;;;2603143;54;20026;31
2023/10/18 04:29:47;;;;;;;35.60;16.03;;;2.20;99.90;;;;;;2621504;46;20027;31
2023/10/18 04:32:23;;;;;;;41.53;17.65;;;2.20;99.90;;;;;;2603343;54;20026;31
2023/10/18 04:35:01;;;;;;;44.27;18.23;;;2.20;99.90;;;;;;2621817;46;20903;31
2023/10/18 04:37:40;;;;;;;40.90;19.73;;;2.20;99.90;;;;;;2603200;54;20026;31
2023/10/18 04:40:22;;;;;;;37.55;17.25;;;2.20;99.90;;;;;;2621619;46;20029;31
2023/10/18 04:43:00;;;;;;;57.08;20.02;;;2.20;99.90;;;;;;2621557;46;20902;31
2023/10/18 04:45:42;;;;;;;41.25;18.65;;;2.20;99.90;;;;;;2621567;46;20054;31
2023/10/18 04:48:18;;;;;;;41.63;18.05;;;2.20;99.90;;;;;;2621895;46;20902;31
2023/10/18 04:50:52;;;;;;;;;;;2.10;99.90;;;;;;2616504;46;22498;31
2023/10/18 04:53:29;;;;;;;40.27;17.03;;;2.10;99.90;;;;;;2603246;54;20716;31
2023/10/18 04:56:03;;;;;;;43.20;19.08;;;2.10;99.90;;;;;;2603406;54;20096;31
2023/10/18 04:58:42;;;;;;;47.80;20.10;;;2.10;99.90;;;;;;2603327;54;20046;31
2023/10/18 05:01:24;;;;;;;59.20;19.08;;;2.00;99.90;;;;;;2603176;54;20049;31
2023/10/18 05:04:18;;;;;;;48.00;19.77;;;2.00;99.90;;;;;;2603486;54;20046;31
2023/10/18 05:06:54;;;;;;;42.28;18.10;;;1.90;99.90;;;;;;2603039;54;20923;31
2023/10/18 05:09:34;;;;;;;47.72;20.20;;;1.90;99.90;;;;;;2603286;54;20027;31
2023/10/18 05:12:16;;;;;;;38.95;17.08;;;1.90;99.90;;;;;;2603151;54;20046;31
2023/10/18 05:14:59;;;;;;;42.95;17.45;;;1.80;99.90;;;;;;2603149;54;20026;31
2023/10/18 05:17:42;;;;;;;32.83;15.55;;;1.80;99.90;;;;;;2621635;46;20027;31
2023/10/18 05:20:28;;;;;;;53.50;17.50;;;1.80;99.90;;;;;;2602858;54;20057;31
2023/10/18 05:23:04;;;;;;;48.40;17.40;;;1.80;99.90;;;;;;2621149;46;20865;31
2023/10/18 05:25:48;;;;;;;56.83;19.08;;;1.80;99.90;;;;;;2603322;54;20913;31
2023/10/18 05:28:29;;;;;;;113.20;35.95;;;1.80;99.90;;;;;;2603069;54;20031;31
2023/10/18 05:33:54;;;;;;;60.03;20.80;;;1.80;99.90;;;;;;2603241;54;20077;31
2023/10/18 05:36:49;;;;;;;48.17;21.63;;;1.80;99.90;;;;;;2602905;54;20963;31
2023/10/18 06:29:00;;;;;;;29.02;14.75;;;2.00;99.90;;;;;;2621584;47;20057;31
2023/10/18 06:31:47;;;;;;;35.95;13.95;;;2.00;99.90;;;;;;2621718;47;20038;31
2023/10/18 06:34:24;;;;;;;26.33;13.25;;;2.00;99.90;;;;;;2602167;54;20960;31
2023/10/18 06:37:06;;;;;;;29.83;12.77;;;2.00;99.90;;;;;;2602894;54;20026;31
2023/10/18 06:45:46;;;;;;;35.95;12.00;;;2.10;99.90;;;;;;2602274;54;20061;31
2023/10/18 06:48:26;;;;;;;23.25;12.75;;;2.20;99.90;;;;;;2602142;54;20027;31
2023/10/18 06:51:11;;;;;;;37.28;14.77;;;2.20;99.90;;;;;;2603836;54;20054;31
2023/10/18 06:53:53;;;;;;;26.95;13.00;;;2.30;99.90;;;;;;2603558;54;20777;31
2023/10/18 06:56:53;;;;;;;25.95;13.07;;;2.30;99.90;;;;;;2603506;54;20050;31
2023/10/18 06:59:30;;;;;;;28.93;13.10;;;2.40;99.90;;;;;;2603596;54;20045;31
2023/10/18 07:02:11;;;;;;;28.75;12.43;;;2.50;99.90;;;;;;2603737;54;20234;31
2023/10/18 07:04:56;;;;;;;29.23;14.25;;;2.70;99.90;;;;;;2603735;54;20037;31
2023/10/18 07:07:45;;;;;;;27.27;12.70;;;2.80;99.90;;;;;;2603491;54;20925;31
2023/10/18 07:13:12;;;;;;;34.50;12.80;;;3.00;99.90;;;;;;2603564;54;20993;31
2023/10/18 07:15:47;;;;;;;32.75;14.50;;;3.00;99.90;;;;;;2621832;46;20899;31
2023/10/18 07:18:27;;;;;;;30.60;14.15;;;3.10;99.90;;;;;;2603598;54;25048;31
2023/10/18 07:21:09;;;;;;;33.27;13.23;;;3.30;99.90;;;;;;2603601;54;21023;31
2023/10/18 07:23:53;;;;;;;28.05;12.57;;;3.30;99.90;;;;;;2603507;54;20864;31
2023/10/18 07:26:29;;;;;;;34.63;14.05;;;3.40;99.90;;;;;;2603549;54;20030;31
2023/10/18 07:29:06;;;;;;;31.27;15.10;;;3.60;99.90;;;;;;2622234;46;20045;31
2023/10/18 07:31:44;;;;;;;27.65;13.23;;;3.70;99.90;;;;;;2622076;46;20266;31
2023/10/18 07:34:29;;;;;;;28.20;13.57;;;3.70;99.90;;;;;;2621909;46;20567;31
2023/10/18 07:37:17;;;;;;;30.25;13.00;;;3.80;99.90;;;;;;2603683;54;20741;31
2023/10/18 07:39:59;;;;;;;31.33;15.15;;;3.80;99.90;;;;;;2603645;54;20129;31
2023/10/18 07:42:41;;;;;;;31.27;12.82;;;3.90;99.90;;;;;;2702215;39;20313;31
2023/10/18 07:45:19;;;;;;;30.97;16.03;;;3.90;99.90;;;;;;2603660;54;20033;31
2023/10/18 07:47:56;;;;;;;36.00;14.90;;;4.00;99.90;;;;;;2603537;54;20030;31
2023/10/18 07:50:49;;;;;;;38.08;15.43;;;4.10;99.90;;;;;;2603571;54;19993;31
2023/10/18 07:53:24;;;;;;;41.30;14.82;;;4.20;99.90;;;;;;2603541;54;20940;31
2023/10/18 07:56:03;;;;;;;30.33;15.27;;;4.30;99.90;;;;;;2603339;54;20477;31
2023/10/18 07:58:48;;;;;;;30.40;15.05;;;4.40;99.90;;;;;;2603297;54;20897;31
2023/10/18 08:04:17;;;;;;;24.42;13.50;;;4.60;99.90;;;;;;2603386;54;20033;31
2023/10/18 08:06:56;;;;;;;30.85;15.05;;;4.70;99.90;;;;;;2621603;46;22382;31
2023/10/18 08:09:33;;;;;;;26.30;14.38;;;4.70;99.90;;;;;;2603377;54;20030;31
2023/10/18 08:12:19;;;;;;;27.60;15.02;;;4.90;99.90;;;;;;2621787;46;20046;31
2023/10/18 08:14:57;;;;;;;32.03;15.20;;;4.90;99.90;;;;;;2603495;54;20034;31
2023/10/18 08:17:46;;;;;;;30.80;15.82;;;5.00;99.90;;;;;;2621885;46;20121;31
2023/10/18 08:23:34;;;;;;;33.47;15.80;;;5.30;99.90;;;;;;2603183;54;20081;31
2023/10/18 08:26:12;;;;;;;32.00;16.60;;;5.60;99.90;;;;;;2603351;54;20152;31
2023/10/18 08:28:49;;;;;;;30.55;16.25;;;5.80;99.90;;;;;;2603233;54;20060;31
2023/10/18 08:34:18;;;;;;;33.03;16.77;;;6.20;99.90;;;;;;2602998;54;20880;31
2023/10/18 08:37:01;;;;;;;26.47;15.57;;;6.70;99.90;;;;;;2603393;54;20085;31
2023/10/18 08:39:52;;;;;;;28.13;15.48;;;7.20;99.90;;;;;;2603210;54;20031;31
2023/10/18 08:42:31;;;;;;;28.80;14.80;;;7.60;99.90;;;;;;2603525;54;20030;31
2023/10/18 08:45:19;;;;;;;25.85;15.40;;;8.00;99.90;;;;;;2603531;54;20038;31
2023/10/18 08:47:59;;;;;;;25.67;14.88;;;8.50;99.90;;;;;;2603512;54;20026;31
2023/10/18 08:50:37;;;;;;;27.35;16.00;;;8.90;99.90;;;;;;2603248;54;20030;31
2023/10/18 08:53:15;;;;;;;27.50;15.40;;;9.20;99.90;;;;;;2621483;46;20026;31
2023/10/18 08:55:57;;;;;;;27.05;14.40;;;9.40;99.90;;;;;;2603165;54;20085;31
2023/10/18 08:58:33;;;;;;;27.90;15.05;;;9.70;99.90;;;;;;2603357;54;20031;31
2023/10/18 09:01:11;;;;;;;28.85;15.48;;;9.80;99.90;;;;;;2603299;54;20026;31
2023/10/18 09:03:44;;;;;;;25.73;15.02;;;10.20;99.90;;;;;;2603257;54;20026;31
2023/10/18 09:06:34;;;;;;;27.00;14.05;;;10.50;99.90;;;;;;2603205;54;20092;31
2023/10/18 09:09:18;;;;;;;26.50;14.80;;;10.70;99.90;;;;;;2602971;54;20165;31
2023/10/18 09:12:05;;;;;;;26.17;14.38;;;10.90;99.90;;;;;;2602589;54;20801;31
2023/10/18 09:14:37;;;;;;;27.23;13.73;;;11.10;99.90;;;;;;2603208;54;20032;31
2023/10/18 09:17:21;;;;;;;20.40;13.18;;;11.40;99.90;;;;;;2621430;46;20872;31
2023/10/18 09:20:01;;;;;;;24.95;14.50;;;11.70;99.90;;;;;;2621950;46;20026;31
2023/10/18 09:22:38;;;;;;;25.65;14.13;;;11.90;99.90;;;;;;2603185;54;19934;31
2023/10/18 09:25:14;;;;;;;23.83;13.13;;;12.10;99.90;;;;;;2603297;54;20084;31
2023/10/18 09:28:06;;;;;;;25.30;13.30;;;12.30;99.90;;;;;;2603015;54;20887;31
2023/10/18 09:30:41;;;;;;;27.58;12.88;;;12.50;99.90;;;;;;2602962;54;20026;31
2023/10/18 09:33:17;;;;;;;21.20;11.00;;;12.70;99.90;;;;;;2603206;54;20048;31
2023/10/18 09:36:01;;;;;;;18.95;10.50;;;12.80;99.90;;;;;;2603162;54;20397;31
2023/10/18 09:38:41;;;;;;;22.57;11.97;;;12.90;99.90;;;;;;2603268;54;20038;31
2023/10/18 09:41:17;;;;;;;21.25;12.15;;;13.00;99.90;;;;;;2603096;54;20954;31
2023/10/18 09:44:00;;;;;;;19.03;10.37;;;13.20;99.90;;;;;;2602415;54;20113;31
2023/10/18 09:46:39;;;;;;;21.23;10.60;;;13.40;99.90;;;;;;2603032;54;20026;31
2023/10/18 09:49:21;;;;;;;18.03;10.10;;;13.50;99.90;;;;;;2603044;54;20810;31
2023/10/18 09:52:03;;;;;;;15.45;9.50;;;13.50;99.90;;;;;;2602907;54;20250;31
2023/10/18 09:54:38;;;;;;;18.80;10.07;;;13.60;99.90;;;;;;2602918;54;20850;31
2023/10/18 09:57:23;;;;;;;17.47;10.77;;;13.70;99.90;;;;;;2602819;54;20057;31
2023/10/18 10:00:08;;;;;;;14.38;9.52;;;13.90;99.90;;;;;;2602857;54;20053;31
2023/10/18 10:02:52;;;;;;;15.68;9.75;;;13.90;99.90;;;;;;2602732;54;20116;31
2023/10/18 10:05:30;;;;;;;17.20;9.60;;;14.00;99.90;;;;;;2603164;54;20901;31
2023/10/18 10:08:07;;;;;;;16.05;9.80;;;14.00;99.90;;;;;;2603116;54;20031;31
2023/10/18 10:10:49;;;;;;;16.50;10.27;;;14.10;99.90;;;;;;2602583;54;20033;31
2023/10/18 10:13:29;;;;;;;17.40;10.20;;;14.10;99.90;;;;;;2603200;54;20944;31
2023/10/18 10:16:09;;;;;;;17.35;9.65;;;14.10;99.90;;;;;;2602998;54;20045;31
2023/10/18 10:18:47;;;;;;;22.15;9.95;;;14.10;99.90;;;;;;2602815;54;20074;31
2023/10/18 10:21:24;;;;;;;16.80;9.20;;;14.00;99.90;;;;;;2602914;54;20962;31
2023/10/18 10:24:06;;;;;;;15.38;9.07;;;14.00;99.90;;;;;;2603848;54;20049;31
2023/10/18 10:26:47;;;;;;;16.42;9.18;;;14.00;99.90;;;;;;2603623;54;20049;31
2023/10/18 10:29:34;;;;;;;14.30;8.80;;;14.00;99.90;;;;;;2603714;54;20873;31
2023/10/18 10:32:15;;;;;;;17.50;9.10;;;14.10;99.90;;;;;;2603514;54;20808;31
2023/10/18 10:34:54;;;;;;;15.80;8.37;;;14.00;99.90;;;;;;2603850;54;20807;31
2023/10/18 10:37:31;;;;;;;15.75;8.02;;;14.10;99.90;;;;;;2603698;54;20361;31
2023/10/18 10:40:19;;;;;;;11.77;8.05;;;14.00;99.90;;;;;;2603789;54;20023;31
2023/10/18 10:43:01;;;;;;;11.60;7.65;;;14.00;99.90;;;;;;2603847;54;20022;31
2023/10/18 10:45:38;;;;;;;11.70;7.50;;;14.10;99.90;;;;;;2603683;54;20130;31
2023/10/18 10:48:45;;;;;;;10.47;6.40;;;14.00;99.90;;;;;;2603451;54;20030;31
2023/10/18 10:51:25;;;;;;;9.20;5.50;;;14.00;99.90;;;;;;2622502;46;20030;31
2023/10/18 10:54:06;;;;;;;10.70;5.85;;;14.00;99.90;;;;;;2603800;54;20915;31
2023/10/18 10:56:49;;;;;;;12.82;6.22;;;14.00;99.90;;;;;;2603507;54;20030;31
2023/10/18 11:05:14;;;;;;;10.07;5.28;;;14.00;99.90;;;;;;2603407;54;20027;31
2023/10/18 11:07:51;;;;;;;11.20;5.60;;;13.90;99.90;;;;;;2622226;46;20062;31
2023/10/18 11:10:28;;;;;;;10.30;5.93;;;13.90;99.90;;;;;;2603749;54;20030;31
2023/10/18 11:13:13;;;;;;;12.60;5.90;;;13.90;99.90;;;;;;2603772;54;20046;31
2023/10/18 11:15:49;;;;;;;10.13;5.77;;;13.90;99.90;;;;;;2603644;54;20905;31
2023/10/18 11:18:34;;;;;;;10.13;5.97;;;13.90;99.90;;;;;;2603006;54;20030;31
2023/10/18 11:21:24;;;;;;;11.77;5.60;;;13.80;99.90;;;;;;2603669;54;20053;31
2023/10/18 11:24:02;;;;;;;7.82;5.43;;;13.80;99.90;;;;;;2603606;54;20053;31
2023/10/18 11:26:40;;;;;;;11.10;4.50;;;13.70;99.90;;;;;;2603661;54;20026;31
2023/10/18 11:29:16;;;;;;;12.40;5.40;;;13.70;99.90;;;;;;2603363;54;20034;31
2023/10/18 11:31:55;;;;;;;9.90;5.07;;;13.70;99.90;;;;;;2621778;46;20892;31
2023/10/18 11:34:32;;;;;;;7.60;4.60;;;13.60;99.90;;;;;;2603395;54;20022;31
2023/10/18 11:37:13;;;;;;;6.68;4.07;;;13.60;99.90;;;;;;2613414;46;22419;31
2023/10/18 11:39:50;;;;;;;9.15;3.40;;;13.60;99.90;;;;;;2603689;54;20881;31
2023/10/18 11:42:25;;;;;;;8.90;4.40;;;13.60;99.90;;;;;;2603432;54;20948;31
2023/10/18 11:45:01;;;;;;;8.77;4.10;;;13.50;99.90;;;;;;2603445;54;20034;31
2023/10/18 11:47:37;;;;;;;7.45;4.35;;;13.50;99.90;;;;;;2621846;46;20874;31
2023/10/18 11:50:13;;;;;;;10.68;4.40;;;13.50;99.90;;;;;;2603448;54;20054;31
2023/10/18 11:52:52;;;;;;;8.88;4.18;;;13.40;99.90;;;;;;2603352;54;20913;31
2023/10/18 11:55:29;;;;;;;7.07;3.58;;;13.50;99.90;;;;;;2603448;54;20109;31
2023/10/18 11:58:12;;;;;;;7.35;3.90;;;13.40;99.90;;;;;;2603222;54;20100;31
2023/10/18 12:00:55;;;;;;;6.80;4.00;;;13.40;99.90;;;;;;2622221;46;20041;31
2023/10/18 12:03:33;;;;;;;6.00;3.78;;;13.30;99.90;;;;;;2603541;54;20186;31
2023/10/18 12:06:11;;;;;;;7.30;4.28;;;13.30;99.90;;;;;;2603411;54;20030;31
2023/10/18 12:09:09;;;;;;;5.88;3.95;;;13.30;99.90;;;;;;2603343;54;20810;31
2023/10/18 12:11:44;;;;;;;6.60;3.50;;;13.20;99.90;;;;;;2603364;54;20991;31
2023/10/18 12:14:22;;;;;;;8.27;4.55;;;13.20;99.90;;;;;;2603370;54;20032;31
2023/10/18 12:17:00;;;;;;;6.05;3.50;;;13.20;99.90;;;;;;2621789;46;20154;31
2023/10/18 12:19:36;;;;;;;5.35;3.25;;;13.10;99.90;;;;;;2603343;54;20034;31
2023/10/18 12:22:16;;;;;;;7.43;3.92;;;13.10;99.90;;;;;;2603308;54;20057;31
2023/10/18 12:24:58;;;;;;;6.68;3.67;;;13.00;99.90;;;;;;2603513;54;20023;31
2023/10/18 12:27:37;;;;;;;7.00;3.10;;;12.90;99.90;;;;;;2603476;54;20031;31
2023/10/18 12:30:27;;;;;;;4.60;3.00;;;13.00;99.90;;;;;;2603623;54;20026;31
2023/10/18 12:33:14;;;;;;;5.70;3.00;;;12.90;99.90;;;;;;2603330;54;20022;31
2023/10/18 12:35:52;;;;;;;10.87;3.67;;;13.00;99.90;;;;;;2603435;54;21217;31
2023/10/18 12:38:35;;;;;;;7.33;3.67;;;12.90;99.90;;;;;;2603185;54;20029;31
2023/10/18 12:41:19;;;;;;;5.30;2.58;;;12.90;99.90;;;;;;2603304;54;20258;31
2023/10/18 12:43:55;;;;;;;4.45;2.40;;;12.90;99.90;;;;;;2603399;54;20924;31
2023/10/18 12:46:35;;;;;;;4.80;2.80;;;12.90;99.90;;;;;;2603341;54;20030;31
2023/10/18 12:49:22;;;;;;;5.78;3.15;;;12.80;99.90;;;;;;2621711;46;20030;31
2023/10/18 12:52:04;;;;;;;10.20;3.15;;;12.80;99.90;;;;;;2621651;46;20183;31
2023/10/18 12:54:50;;;;;;;6.75;2.20;;;12.80;99.90;;;;;;2602592;54;20038;31
2023/10/18 12:57:32;;;;;;;4.60;2.77;;;12.80;99.90;;;;;;2603104;54;20035;31
2023/10/18 13:00:16;;;;;;;5.30;2.60;;;12.80;99.90;;;;;;2603036;54;20027;31
2023/10/18 13:05:51;;;;;;;5.00;2.50;;;12.80;99.90;;;;;;2603217;54;20092;31
2023/10/18 13:08:26;;;;;;;7.07;3.08;;;12.80;99.90;;;;;;2603126;54;20033;31
2023/10/18 13:13:56;;;;;;;7.75;3.50;;;12.90;99.90;;;;;;2603298;54;20148;31
2023/10/18 13:16:32;;;;;;;5.35;3.10;;;12.80;99.90;;;;;;2602832;54;20921;31
2023/10/18 13:19:09;;;;;;;4.35;2.67;;;12.80;99.90;;;;;;2603183;54;20030;31
2023/10/18 13:21:50;;;;;;;4.53;2.50;;;12.80;99.90;;;;;;2603335;54;20890;31
2023/10/18 13:27:36;;;;;;;4.55;2.70;;;12.80;99.90;;;;;;2621388;46;20085;31
2023/10/18 13:30:31;;;;;;;9.02;3.83;;;12.80;99.90;;;;;;2603135;54;20026;31
2023/10/18 13:33:11;;;;;;;8.18;2.50;;;12.80;99.90;;;;;;2621656;46;20077;31
2023/10/18 13:35:52;;;;;;;4.68;2.35;;;12.80;99.90;;;;;;2603382;54;20033;31
2023/10/18 13:38:31;;;;;;;3.88;2.13;;;12.80;99.90;;;;;;2602402;54;20022;31
2023/10/18 13:41:07;;;;;;;7.72;3.03;;;12.70;99.90;;;;;;2621470;46;20042;31
2023/10/18 13:43:44;;;;;;;9.35;2.72;;;12.70;99.90;;;;;;2621242;46;20029;31
2023/10/18 13:46:23;;;;;;;6.55;2.55;;;12.70;99.90;;;;;;2603073;54;20037;31
2023/10/18 13:48:58;;;;;;;5.93;2.70;;;12.70;99.90;;;;;;2603114;54;20022;31
2023/10/18 13:51:37;;;;;;;5.25;2.35;;;12.70;99.90;;;;;;2621794;46;20027;31
2023/10/18 13:54:14;;;;;;;6.55;2.40;;;12.70;99.90;;;;;;2602968;54;20938;31
2023/10/18 13:56:51;;;;;;;6.07;2.60;;;12.70;99.90;;;;;;2621125;46;20053;31
2023/10/18 13:59:28;;;;;;;7.00;3.37;;;12.70;99.90;;;;;;2603187;54;20908;31
2023/10/18 14:02:17;;;;;;;6.70;4.15;;;12.70;99.90;;;;;;2621330;47;20027;31
2023/10/18 14:04:58;;;;;;;7.43;3.88;;;12.70;99.90;;;;;;2719723;39;22411;31
2023/10/18 14:07:35;;;;;;;5.40;2.63;;;12.70;99.90;;;;;;2603071;54;20057;31
2023/10/18 14:10:27;;;;;;;6.40;3.05;;;12.70;99.90;;;;;;2602682;54;20031;31
2023/10/18 14:13:03;;;;;;;9.00;2.80;;;12.70;99.90;;;;;;2603221;54;20900;31
2023/10/18 14:15:43;;;;;;;4.25;3.20;;;12.60;99.90;;;;;;2603091;54;20962;31
2023/10/18 14:18:25;;;;;;;6.10;3.03;;;12.60;99.90;;;;;;2602940;54;20117;31
2023/10/18 14:21:12;;;;;;;6.57;2.65;;;12.60;99.90;;;;;;2602952;54;20161;31
2023/10/18 14:23:54;;;;;;;5.22;2.83;;;12.60;99.90;;;;;;2603151;54;20774;31
2023/10/18 14:26:32;;;;;;;5.80;3.60;;;12.60;99.90;;;;;;2602342;54;20837;31
2023/10/18 14:29:11;;;;;;;7.00;3.47;;;12.60;99.90;;;;;;2603030;54;20839;31
2023/10/18 14:31:51;;;;;;;6.80;3.70;;;12.60;99.90;;;;;;2602987;54;20050;31
2023/10/18 14:34:32;;;;;;;5.43;2.83;;;12.50;99.90;;;;;;2602834;54;20097;31
2023/10/18 14:37:07;;;;;;;7.33;2.67;;;12.50;99.90;;;;;;2621269;47;20301;31
2023/10/18 14:39:44;;;;;;;5.13;2.05;;;12.50;99.90;;;;;;2602862;54;20027;31
2023/10/18 14:42:22;;;;;;;4.97;1.90;;;12.50;99.90;;;;;;2602776;54;20045;31
2023/10/18 14:44:59;;;;;;;7.22;1.90;;;12.40;99.90;;;;;;2602697;54;22435;31
2023/10/18 14:47:38;;;;;;;4.15;2.00;;;12.40;99.90;;;;;;2602865;54;20888;31
2023/10/18 14:50:23;;;;;;;4.20;1.90;;;12.40;99.90;;;;;;2602731;54;20034;31
2023/10/18 14:53:00;;;;;;;3.15;1.85;;;12.40;99.90;;;;;;2621276;47;20033;31
2023/10/18 14:55:40;;;;;;;;;;;12.40;99.90;;;;;;2603099;54;19935;31
2023/10/18 14:58:23;;;;;;;4.93;1.70;;;12.30;99.90;;;;;;2602817;54;20818;31
2023/10/18 15:00:59;;;;;;;4.00;2.10;;;12.30;99.90;;;;;;2602680;54;20031;31
2023/10/18 15:06:19;;;;;;;16.90;8.35;;;12.20;99.90;;;;;;2602350;54;20089;31
2023/10/18 15:08:57;;;;;;;10.55;6.30;;;12.10;99.90;;;;;;2603038;54;20940;31
2023/10/18 15:11:33;;;;;;;7.53;5.57;;;12.10;99.90;;;;;;2622050;46;20030;31
2023/10/18 15:14:11;;;;;;;6.85;3.65;;;12.00;99.90;;;;;;2603724;54;20038;31
2023/10/18 15:16:47;;;;;;;6.00;3.35;;;12.00;99.90;;;;;;2622150;46;24075;31
2023/10/18 15:19:24;;;;;;;8.15;3.35;;;11.90;99.90;;;;;;2603699;54;20875;31
2023/10/18 15:22:03;;;;;;;8.35;3.30;;;11.90;99.90;;;;;;2603521;54;20910;31
2023/10/18 15:24:43;;;;;;;4.97;2.77;;;11.80;99.90;;;;;;2603463;54;20038;31
2023/10/18 15:27:18;;;;;;;10.50;6.32;;;11.80;99.90;;;;;;2603533;54;20903;31
2023/10/18 15:29:56;;;;;;;13.15;8.15;;;11.70;99.90;;;;;;2621974;46;20034;31
2023/10/18 15:32:32;;;;;;;8.55;4.93;;;11.70;99.90;;;;;;2603764;54;20073;31